• °C
  • Pobieranie danych...
wx


SEKCJA WYDRUKÓW, pokaż »

METAR EPBY 241130Z 23008KT 4200 BR OVC002 02/01 Q1033=

METAR EPGD 241130Z 24009KT 9999 OVC003 03/02 Q1030 =

METAR EPKK 241130Z VRB01KT CAVOK M03/M09 Q1034 =

METAR EPKT 241130Z 21004KT 170V250 CAVOK M02/M07 Q1034 =

METAR EPLB 241130Z 20006KT CAVOK M05/M08 Q1035 =

METAR EPLL 241130Z 21006KT 180V250 9000 FEW025 00/M03 Q1034 =

METAR EPML 241130Z AUTO 16004KT 110V200 9000 NCD M03/M09 Q1036=

METAR EPMO 241130Z 19006KT CAVOK 01/M04 Q1034 =

METAR EPPO 241130Z 23006KT 9999 OVC004 03/02 Q1033 =

METAR EPRA 241130Z 21004KT 170V250 CAVOK M02/M06 Q1035=

METAR EPRZ 241130Z 08003KT 9999 FEW008 M06/M10 Q1036 =

METAR EPSC 241130Z 27005KT 9999 BKN003 OVC008 05/04 Q1033 =

METAR EPSY 241130Z 21010KT 5000 BR OVC008 M00/M02 Q1032=

METAR EPWA 241130Z 20005KT 150V230 9999 BKN023 M01/M05 Q1034 NOSIG=

METAR EPWR 241130Z 16004KT 120V200 7000 OVC004 02/01 Q1034 =

METAR EPZG 241130Z 20004KT 4500 BR OVC004 04/04 Q1034 =
 METAR EPML
Lokalizacja:EPML Mielec
Czas:11:30 UTC
AUTO:Depesza całkowicie automatyczna, bez udziału obserwatora
Średni kierunek wiatru:160 °
Średnia prędkość wiatru:4 węzłów
Kierunek wiatru zmienia się od:110 °
Kierunek wiatru zmienia się do:200 °
Widzialność:9 kilometrów
Zachmurzenie :brak możliwości ustalenia
Temperatura powietrza:-3 °C
Temperatura punktu rosy:-9 °C
Ciśnienie QNH:1036 hPa



Serwisy IMGW-PIB